sensor_id;sensor_type;location;lat;lon;timestamp;P1;durP1;ratioP1;P2;durP2;ratioP2
17065;SDS011;23120;52.336;21.182;2023-08-12T00:02:01;0.20;;;0.20;;
17065;SDS011;23120;52.336;21.182;2023-08-12T00:04:28;0.20;;;0.20;;
17065;SDS011;23120;52.336;21.182;2023-08-12T00:06:54;0.30;;;0.30;;
17065;SDS011;23120;52.336;21.182;2023-08-12T00:09:21;0.30;;;0.30;;
17065;SDS011;23120;52.336;21.182;2023-08-12T00:11:49;0.20;;;0.20;;
17065;SDS011;23120;52.336;21.182;2023-08-12T00:14:16;0.20;;;0.20;;
17065;SDS011;23120;52.336;21.182;2023-08-12T00:16:43;0.20;;;0.20;;
17065;SDS011;23120;52.336;21.182;2023-08-12T00:19:10;0.30;;;0.30;;
17065;SDS011;23120;52.336;21.182;2023-08-12T00:21:37;0.30;;;0.30;;
17065;SDS011;23120;52.336;21.182;2023-08-12T00:24:04;0.20;;;0.20;;
17065;SDS011;23120;52.336;21.182;2023-08-12T00:26:31;0.20;;;0.20;;
17065;SDS011;23120;52.336;21.182;2023-08-12T00:28:59;0.20;;;0.20;;
17065;SDS011;23120;52.336;21.182;2023-08-12T00:31:26;0.20;;;0.20;;
17065;SDS011;23120;52.336;21.182;2023-08-12T00:33:54;0.23;;;0.23;;
17065;SDS011;23120;52.336;21.182;2023-08-12T00:36:21;0.20;;;0.20;;
17065;SDS011;23120;52.336;21.182;2023-08-12T00:38:48;0.20;;;0.20;;
17065;SDS011;23120;52.336;21.182;2023-08-12T00:41:14;0.20;;;0.20;;
17065;SDS011;23120;52.336;21.182;2023-08-12T00:43:41;0.20;;;0.20;;
17065;SDS011;23120;52.336;21.182;2023-08-12T00:46:09;0.20;;;0.20;;
17065;SDS011;23120;52.336;21.182;2023-08-12T00:48:37;0.20;;;0.20;;
17065;SDS011;23120;52.336;21.182;2023-08-12T00:51:04;0.20;;;0.20;;
17065;SDS011;23120;52.336;21.182;2023-08-12T00:53:31;0.20;;;0.20;;
17065;SDS011;23120;52.336;21.182;2023-08-12T00:55:58;0.20;;;0.20;;
17065;SDS011;23120;52.336;21.182;2023-08-12T00:58:25;0.20;;;0.20;;
17065;SDS011;23120;52.336;21.182;2023-08-12T01:00:51;0.20;;;0.20;;
17065;SDS011;23120;52.336;21.182;2023-08-12T01:03:20;0.20;;;0.20;;
17065;SDS011;23120;52.336;21.182;2023-08-12T01:05:47;0.20;;;0.20;;
17065;SDS011;23120;52.336;21.182;2023-08-12T01:08:14;0.20;;;0.20;;
17065;SDS011;23120;52.336;21.182;2023-08-12T01:10:43;0.20;;;0.20;;
17065;SDS011;23120;52.336;21.182;2023-08-12T01:13:18;0.20;;;0.20;;
17065;SDS011;23120;52.336;21.182;2023-08-12T01:15:52;0.20;;;0.20;;
17065;SDS011;23120;52.336;21.182;2023-08-12T01:18:23;0.20;;;0.20;;
17065;SDS011;23120;52.336;21.182;2023-08-12T01:20:52;0.30;;;0.30;;
17065;SDS011;23120;52.336;21.182;2023-08-12T01:23:21;0.20;;;0.20;;
17065;SDS011;23120;52.336;21.182;2023-08-12T01:25:48;0.20;;;0.20;;
17065;SDS011;23120;52.336;21.182;2023-08-12T01:28:14;0.20;;;0.20;;
17065;SDS011;23120;52.336;21.182;2023-08-12T01:30:43;0.20;;;0.20;;
17065;SDS011;23120;52.336;21.182;2023-08-12T01:33:27;0.20;;;0.20;;
17065;SDS011;23120;52.336;21.182;2023-08-12T01:36:00;0.20;;;0.20;;
17065;SDS011;23120;52.336;21.182;2023-08-12T01:38:36;0.20;;;0.20;;
17065;SDS011;23120;52.336;21.182;2023-08-12T01:41:06;0.20;;;0.20;;
17065;SDS011;23120;52.336;21.182;2023-08-12T01:43:36;0.20;;;0.20;;
17065;SDS011;23120;52.336;21.182;2023-08-12T01:46:04;0.20;;;0.20;;
17065;SDS011;23120;52.336;21.182;2023-08-12T01:48:30;0.20;;;0.20;;
17065;SDS011;23120;52.336;21.182;2023-08-12T01:50:57;0.20;;;0.20;;
17065;SDS011;23120;52.336;21.182;2023-08-12T01:53:24;0.30;;;0.30;;
17065;SDS011;23120;52.336;21.182;2023-08-12T01:55:52;0.20;;;0.20;;
17065;SDS011;23120;52.336;21.182;2023-08-12T01:58:19;0.20;;;0.20;;
17065;SDS011;23120;52.336;21.182;2023-08-12T02:00:46;0.20;;;0.20;;
17065;SDS011;23120;52.336;21.182;2023-08-12T02:03:13;0.30;;;0.30;;
17065;SDS011;23120;52.336;21.182;2023-08-12T02:05:40;0.20;;;0.20;;
17065;SDS011;23120;52.336;21.182;2023-08-12T02:08:07;0.20;;;0.20;;
17065;SDS011;23120;52.336;21.182;2023-08-12T02:10:34;0.20;;;0.20;;
17065;SDS011;23120;52.336;21.182;2023-08-12T02:13:02;0.20;;;0.20;;
17065;SDS011;23120;52.336;21.182;2023-08-12T02:15:30;0.20;;;0.20;;
17065;SDS011;23120;52.336;21.182;2023-08-12T02:17:58;0.20;;;0.20;;
17065;SDS011;23120;52.336;21.182;2023-08-12T02:20:25;0.20;;;0.20;;
17065;SDS011;23120;52.336;21.182;2023-08-12T02:22:51;0.20;;;0.20;;
17065;SDS011;23120;52.336;21.182;2023-08-12T02:25:18;0.30;;;0.30;;
17065;SDS011;23120;52.336;21.182;2023-08-12T02:27:45;0.20;;;0.20;;
17065;SDS011;23120;52.336;21.182;2023-08-12T02:30:14;0.30;;;0.30;;
17065;SDS011;23120;52.336;21.182;2023-08-12T02:32:41;0.20;;;0.20;;
17065;SDS011;23120;52.336;21.182;2023-08-12T02:35:08;0.20;;;0.20;;
17065;SDS011;23120;52.336;21.182;2023-08-12T02:37:35;0.30;;;0.30;;
17065;SDS011;23120;52.336;21.182;2023-08-12T02:40:03;0.20;;;0.20;;
17065;SDS011;23120;52.336;21.182;2023-08-12T02:42:31;0.20;;;0.20;;
17065;SDS011;23120;52.336;21.182;2023-08-12T02:44:57;0.20;;;0.20;;
17065;SDS011;23120;52.336;21.182;2023-08-12T02:47:27;0.20;;;0.20;;
17065;SDS011;23120;52.336;21.182;2023-08-12T02:49:53;0.30;;;0.30;;
17065;SDS011;23120;52.336;21.182;2023-08-12T02:52:20;0.30;;;0.30;;
17065;SDS011;23120;52.336;21.182;2023-08-12T02:54:48;0.20;;;0.20;;
17065;SDS011;23120;52.336;21.182;2023-08-12T02:57:15;0.30;;;0.30;;
17065;SDS011;23120;52.336;21.182;2023-08-12T02:59:42;0.20;;;0.20;;
17065;SDS011;23120;52.336;21.182;2023-08-12T03:02:09;0.20;;;0.20;;
17065;SDS011;23120;52.336;21.182;2023-08-12T03:04:37;0.20;;;0.20;;
17065;SDS011;23120;52.336;21.182;2023-08-12T03:07:04;0.30;;;0.30;;
17065;SDS011;23120;52.336;21.182;2023-08-12T03:09:31;0.27;;;0.27;;
17065;SDS011;23120;52.336;21.182;2023-08-12T03:11:58;0.20;;;0.20;;
17065;SDS011;23120;52.336;21.182;2023-08-12T03:14:28;0.20;;;0.20;;
17065;SDS011;23120;52.336;21.182;2023-08-12T03:16:57;0.20;;;0.20;;
17065;SDS011;23120;52.336;21.182;2023-08-12T03:19:25;0.23;;;0.23;;
17065;SDS011;23120;52.336;21.182;2023-08-12T03:21:53;0.20;;;0.20;;
17065;SDS011;23120;52.336;21.182;2023-08-12T03:24:22;0.20;;;0.20;;
17065;SDS011;23120;52.336;21.182;2023-08-12T03:26:48;0.20;;;0.20;;
17065;SDS011;23120;52.336;21.182;2023-08-12T03:29:16;0.30;;;0.30;;
17065;SDS011;23120;52.336;21.182;2023-08-12T03:31:43;0.20;;;0.20;;
17065;SDS011;23120;52.336;21.182;2023-08-12T03:34:10;0.20;;;0.20;;
17065;SDS011;23120;52.336;21.182;2023-08-12T03:36:38;0.20;;;0.20;;
17065;SDS011;23120;52.336;21.182;2023-08-12T03:39:07;0.20;;;0.20;;
17065;SDS011;23120;52.336;21.182;2023-08-12T03:41:34;0.20;;;0.20;;
17065;SDS011;23120;52.336;21.182;2023-08-12T03:55:32;0.20;;;0.20;;
17065;SDS011;23120;52.336;21.182;2023-08-12T03:58:00;0.20;;;0.20;;
17065;SDS011;23120;52.336;21.182;2023-08-12T04:00:28;0.30;;;0.30;;
17065;SDS011;23120;52.336;21.182;2023-08-12T04:02:58;0.20;;;0.20;;
17065;SDS011;23120;52.336;21.182;2023-08-12T04:05:25;0.20;;;0.20;;
17065;SDS011;23120;52.336;21.182;2023-08-12T04:07:52;0.30;;;0.30;;
17065;SDS011;23120;52.336;21.182;2023-08-12T04:10:19;0.20;;;0.20;;
17065;SDS011;23120;52.336;21.182;2023-08-12T04:12:47;0.20;;;0.20;;
17065;SDS011;23120;52.336;21.182;2023-08-12T04:15:14;0.20;;;0.20;;
17065;SDS011;23120;52.336;21.182;2023-08-12T04:17:41;0.20;;;0.20;;
17065;SDS011;23120;52.336;21.182;2023-08-12T04:20:08;0.20;;;0.20;;
17065;SDS011;23120;52.336;21.182;2023-08-12T04:22:36;0.20;;;0.20;;
17065;SDS011;23120;52.336;21.182;2023-08-12T04:25:03;0.20;;;0.20;;
17065;SDS011;23120;52.336;21.182;2023-08-12T04:27:31;0.20;;;0.20;;
17065;SDS011;23120;52.336;21.182;2023-08-12T04:30:00;0.20;;;0.20;;
17065;SDS011;23120;52.336;21.182;2023-08-12T04:32:30;0.20;;;0.20;;
17065;SDS011;23120;52.336;21.182;2023-08-12T04:34:56;0.20;;;0.20;;
17065;SDS011;23120;52.336;21.182;2023-08-12T04:37:24;0.30;;;0.30;;
17065;SDS011;23120;52.336;21.182;2023-08-12T04:39:52;0.30;;;0.30;;
17065;SDS011;23120;52.336;21.182;2023-08-12T04:42:19;0.20;;;0.20;;
17065;SDS011;23120;52.336;21.182;2023-08-12T04:44:46;0.20;;;0.20;;
17065;SDS011;23120;52.336;21.182;2023-08-12T04:47:14;0.20;;;0.20;;
17065;SDS011;23120;52.336;21.182;2023-08-12T04:49:41;0.20;;;0.20;;
17065;SDS011;23120;52.336;21.182;2023-08-12T04:52:08;0.30;;;0.30;;
17065;SDS011;23120;52.336;21.182;2023-08-12T04:54:35;0.20;;;0.20;;
17065;SDS011;23120;52.336;21.182;2023-08-12T04:57:02;0.20;;;0.20;;
17065;SDS011;23120;52.336;21.182;2023-08-12T04:59:30;0.20;;;0.20;;
17065;SDS011;23120;52.336;21.182;2023-08-12T05:01:58;0.20;;;0.20;;
17065;SDS011;23120;52.336;21.182;2023-08-12T05:04:28;0.20;;;0.20;;
17065;SDS011;23120;52.336;21.182;2023-08-12T05:06:55;0.20;;;0.20;;
17065;SDS011;23120;52.336;21.182;2023-08-12T05:09:23;0.20;;;0.20;;
17065;SDS011;23120;52.336;21.182;2023-08-12T05:11:49;0.20;;;0.20;;
17065;SDS011;23120;52.336;21.182;2023-08-12T05:14:16;0.20;;;0.20;;
17065;SDS011;23120;52.336;21.182;2023-08-12T05:16:44;0.20;;;0.20;;
17065;SDS011;23120;52.336;21.182;2023-08-12T05:19:10;0.20;;;0.20;;
17065;SDS011;23120;52.336;21.182;2023-08-12T05:21:38;0.20;;;0.20;;
17065;SDS011;23120;52.336;21.182;2023-08-12T05:24:06;0.20;;;0.20;;
17065;SDS011;23120;52.336;21.182;2023-08-12T05:26:34;0.20;;;0.20;;
17065;SDS011;23120;52.336;21.182;2023-08-12T05:29:00;0.30;;;0.30;;
17065;SDS011;23120;52.336;21.182;2023-08-12T05:31:27;0.20;;;0.20;;
17065;SDS011;23120;52.336;21.182;2023-08-12T05:33:54;0.30;;;0.30;;
17065;SDS011;23120;52.336;21.182;2023-08-12T05:36:21;0.23;;;0.23;;
17065;SDS011;23120;52.336;21.182;2023-08-12T05:38:49;0.30;;;0.30;;
17065;SDS011;23120;52.336;21.182;2023-08-12T05:41:16;0.30;;;0.30;;
17065;SDS011;23120;52.336;21.182;2023-08-12T05:43:43;0.30;;;0.30;;
17065;SDS011;23120;52.336;21.182;2023-08-12T05:46:09;0.30;;;0.30;;
17065;SDS011;23120;52.336;21.182;2023-08-12T05:48:36;0.30;;;0.30;;
17065;SDS011;23120;52.336;21.182;2023-08-12T05:51:04;0.20;;;0.20;;
17065;SDS011;23120;52.336;21.182;2023-08-12T05:53:31;0.30;;;0.30;;
17065;SDS011;23120;52.336;21.182;2023-08-12T05:55:59;0.23;;;0.23;;
17065;SDS011;23120;52.336;21.182;2023-08-12T05:58:26;0.30;;;0.30;;
17065;SDS011;23120;52.336;21.182;2023-08-12T06:00:53;0.20;;;0.20;;
17065;SDS011;23120;52.336;21.182;2023-08-12T06:03:20;0.20;;;0.20;;
17065;SDS011;23120;52.336;21.182;2023-08-12T06:05:47;0.20;;;0.20;;
17065;SDS011;23120;52.336;21.182;2023-08-12T06:08:14;0.20;;;0.20;;
17065;SDS011;23120;52.336;21.182;2023-08-12T06:10:41;0.20;;;0.20;;
17065;SDS011;23120;52.336;21.182;2023-08-12T06:13:09;0.30;;;0.30;;
17065;SDS011;23120;52.336;21.182;2023-08-12T06:15:36;0.20;;;0.20;;
17065;SDS011;23120;52.336;21.182;2023-08-12T06:18:03;0.20;;;0.20;;
17065;SDS011;23120;52.336;21.182;2023-08-12T06:20:30;0.20;;;0.20;;
17065;SDS011;23120;52.336;21.182;2023-08-12T06:22:57;0.20;;;0.20;;
17065;SDS011;23120;52.336;21.182;2023-08-12T06:25:24;0.20;;;0.20;;
17065;SDS011;23120;52.336;21.182;2023-08-12T06:27:50;0.20;;;0.20;;
17065;SDS011;23120;52.336;21.182;2023-08-12T06:30:19;0.20;;;0.20;;
17065;SDS011;23120;52.336;21.182;2023-08-12T06:32:45;0.20;;;0.20;;
17065;SDS011;23120;52.336;21.182;2023-08-12T06:35:12;0.20;;;0.20;;
17065;SDS011;23120;52.336;21.182;2023-08-12T06:37:39;0.20;;;0.20;;
17065;SDS011;23120;52.336;21.182;2023-08-12T06:40:07;0.20;;;0.20;;
17065;SDS011;23120;52.336;21.182;2023-08-12T06:42:34;0.20;;;0.20;;
17065;SDS011;23120;52.336;21.182;2023-08-12T06:45:01;0.20;;;0.20;;
17065;SDS011;23120;52.336;21.182;2023-08-12T06:47:30;0.20;;;0.20;;
17065;SDS011;23120;52.336;21.182;2023-08-12T06:49:57;0.20;;;0.20;;
17065;SDS011;23120;52.336;21.182;2023-08-12T06:52:24;0.20;;;0.20;;
17065;SDS011;23120;52.336;21.182;2023-08-12T06:54:51;0.20;;;0.20;;
17065;SDS011;23120;52.336;21.182;2023-08-12T06:57:17;0.20;;;0.20;;
17065;SDS011;23120;52.336;21.182;2023-08-12T06:59:44;0.20;;;0.20;;
17065;SDS011;23120;52.336;21.182;2023-08-12T07:02:11;0.20;;;0.20;;
17065;SDS011;23120;52.336;21.182;2023-08-12T07:04:39;0.20;;;0.20;;
17065;SDS011;23120;52.336;21.182;2023-08-12T07:07:06;0.20;;;0.20;;
17065;SDS011;23120;52.336;21.182;2023-08-12T07:09:33;0.20;;;0.20;;
17065;SDS011;23120;52.336;21.182;2023-08-12T07:12:00;0.20;;;0.20;;
17065;SDS011;23120;52.336;21.182;2023-08-12T07:14:27;0.20;;;0.20;;
17065;SDS011;23120;52.336;21.182;2023-08-12T07:16:54;0.20;;;0.20;;
17065;SDS011;23120;52.336;21.182;2023-08-12T07:19:21;0.10;;;0.10;;
17065;SDS011;23120;52.336;21.182;2023-08-12T07:21:49;0.20;;;0.20;;
17065;SDS011;23120;52.336;21.182;2023-08-12T07:24:17;0.20;;;0.20;;
17065;SDS011;23120;52.336;21.182;2023-08-12T07:26:44;0.10;;;0.10;;
17065;SDS011;23120;52.336;21.182;2023-08-12T07:29:10;0.13;;;0.13;;
17065;SDS011;23120;52.336;21.182;2023-08-12T07:31:37;0.20;;;0.20;;
17065;SDS011;23120;52.336;21.182;2023-08-12T07:34:04;0.10;;;0.10;;
17065;SDS011;23120;52.336;21.182;2023-08-12T07:36:31;0.10;;;0.10;;
17065;SDS011;23120;52.336;21.182;2023-08-12T07:39:00;0.13;;;0.13;;
17065;SDS011;23120;52.336;21.182;2023-08-12T07:41:27;0.10;;;0.10;;
17065;SDS011;23120;52.336;21.182;2023-08-12T07:43:54;0.10;;;0.10;;
17065;SDS011;23120;52.336;21.182;2023-08-12T07:46:21;0.10;;;0.10;;
17065;SDS011;23120;52.336;21.182;2023-08-12T07:48:48;0.10;;;0.10;;
17065;SDS011;23120;52.336;21.182;2023-08-12T07:51:15;0.10;;;0.10;;
17065;SDS011;23120;52.336;21.182;2023-08-12T07:53:42;0.10;;;0.10;;
17065;SDS011;23120;52.336;21.182;2023-08-12T07:56:10;0.10;;;0.10;;
17065;SDS011;23120;52.336;21.182;2023-08-12T07:58:37;0.10;;;0.10;;
17065;SDS011;23120;52.336;21.182;2023-08-12T08:01:03;0.00;;;0.00;;
17065;SDS011;23120;52.336;21.182;2023-08-12T08:03:31;0.10;;;0.10;;
17065;SDS011;23120;52.336;21.182;2023-08-12T08:05:58;0.10;;;0.10;;
17065;SDS011;23120;52.336;21.182;2023-08-12T08:08:25;0.10;;;0.10;;
17065;SDS011;23120;52.336;21.182;2023-08-12T08:10:51;0.00;;;0.00;;
17065;SDS011;23120;52.336;21.182;2023-08-12T08:13:20;0.00;;;0.00;;
17065;SDS011;23120;52.336;21.182;2023-08-12T08:15:46;0.00;;;0.00;;
17065;SDS011;23120;52.336;21.182;2023-08-12T08:18:13;0.10;;;0.10;;
17065;SDS011;23120;52.336;21.182;2023-08-12T08:20:41;0.10;;;0.10;;
17065;SDS011;23120;52.336;21.182;2023-08-12T08:23:08;0.00;;;0.00;;
17065;SDS011;23120;52.336;21.182;2023-08-12T08:25:34;0.03;;;0.03;;
17065;SDS011;23120;52.336;21.182;2023-08-12T08:28:01;0.00;;;0.00;;
17065;SDS011;23120;52.336;21.182;2023-08-12T08:30:30;0.00;;;0.00;;
17065;SDS011;23120;52.336;21.182;2023-08-12T08:32:57;0.10;;;0.10;;
17065;SDS011;23120;52.336;21.182;2023-08-12T08:35:24;0.00;;;0.00;;
17065;SDS011;23120;52.336;21.182;2023-08-12T08:37:50;0.10;;;0.10;;
17065;SDS011;23120;52.336;21.182;2023-08-12T08:40:17;0.00;;;0.00;;
17065;SDS011;23120;52.336;21.182;2023-08-12T08:42:44;0.10;;;0.10;;
17065;SDS011;23120;52.336;21.182;2023-08-12T08:45:15;0.10;;;0.10;;
17065;SDS011;23120;52.336;21.182;2023-08-12T08:47:45;0.00;;;0.00;;
17065;SDS011;23120;52.336;21.182;2023-08-12T08:50:13;0.00;;;0.00;;
17065;SDS011;23120;52.336;21.182;2023-08-12T08:52:41;0.10;;;0.10;;
17065;SDS011;23120;52.336;21.182;2023-08-12T08:55:08;0.10;;;0.10;;
17065;SDS011;23120;52.336;21.182;2023-08-12T08:57:36;0.00;;;0.00;;
17065;SDS011;23120;52.336;21.182;2023-08-12T09:00:05;0.00;;;0.00;;
17065;SDS011;23120;52.336;21.182;2023-08-12T09:02:34;0.00;;;0.00;;
17065;SDS011;23120;52.336;21.182;2023-08-12T09:05:04;0.10;;;0.10;;
17065;SDS011;23120;52.336;21.182;2023-08-12T09:07:32;0.00;;;0.00;;
17065;SDS011;23120;52.336;21.182;2023-08-12T09:10:00;0.10;;;0.10;;
17065;SDS011;23120;52.336;21.182;2023-08-12T09:12:31;0.00;;;0.00;;
17065;SDS011;23120;52.336;21.182;2023-08-12T09:14:58;0.00;;;0.00;;
17065;SDS011;23120;52.336;21.182;2023-08-12T09:17:25;0.00;;;0.00;;
17065;SDS011;23120;52.336;21.182;2023-08-12T09:19:52;0.00;;;0.00;;
17065;SDS011;23120;52.336;21.182;2023-08-12T09:22:20;0.10;;;0.10;;
17065;SDS011;23120;52.336;21.182;2023-08-12T09:24:50;0.10;;;0.10;;
17065;SDS011;23120;52.336;21.182;2023-08-12T09:27:17;0.00;;;0.00;;
17065;SDS011;23120;52.336;21.182;2023-08-12T09:29:44;0.00;;;0.00;;
17065;SDS011;23120;52.336;21.182;2023-08-12T09:32:11;0.00;;;0.00;;
17065;SDS011;23120;52.336;21.182;2023-08-12T09:34:44;0.10;;;0.10;;
17065;SDS011;23120;52.336;21.182;2023-08-12T09:37:12;0.00;;;0.00;;
17065;SDS011;23120;52.336;21.182;2023-08-12T09:39:41;0.00;;;0.00;;
17065;SDS011;23120;52.336;21.182;2023-08-12T09:42:08;0.10;;;0.10;;
17065;SDS011;23120;52.336;21.182;2023-08-12T09:44:35;0.00;;;0.00;;
17065;SDS011;23120;52.336;21.182;2023-08-12T09:47:02;0.00;;;0.00;;
17065;SDS011;23120;52.336;21.182;2023-08-12T09:49:30;0.00;;;0.00;;
17065;SDS011;23120;52.336;21.182;2023-08-12T09:51:57;0.00;;;0.00;;
17065;SDS011;23120;52.336;21.182;2023-08-12T09:54:25;0.00;;;0.00;;
17065;SDS011;23120;52.336;21.182;2023-08-12T09:56:54;0.00;;;0.00;;
17065;SDS011;23120;52.336;21.182;2023-08-12T09:59:27;0.00;;;0.00;;
17065;SDS011;23120;52.336;21.182;2023-08-12T10:01:56;0.00;;;0.00;;
17065;SDS011;23120;52.336;21.182;2023-08-12T10:04:27;0.00;;;0.00;;
17065;SDS011;23120;52.336;21.182;2023-08-12T10:06:55;0.00;;;0.00;;
17065;SDS011;23120;52.336;21.182;2023-08-12T10:09:22;0.00;;;0.00;;
17065;SDS011;23120;52.336;21.182;2023-08-12T10:11:51;0.00;;;0.00;;
17065;SDS011;23120;52.336;21.182;2023-08-12T10:14:20;0.00;;;0.00;;
17065;SDS011;23120;52.336;21.182;2023-08-12T10:16:49;0.00;;;0.00;;
17065;SDS011;23120;52.336;21.182;2023-08-12T10:19:16;0.00;;;0.00;;
17065;SDS011;23120;52.336;21.182;2023-08-12T10:21:45;0.00;;;0.00;;
17065;SDS011;23120;52.336;21.182;2023-08-12T10:24:14;0.00;;;0.00;;
17065;SDS011;23120;52.336;21.182;2023-08-12T10:26:43;0.00;;;0.00;;
17065;SDS011;23120;52.336;21.182;2023-08-12T10:29:10;0.00;;;0.00;;
17065;SDS011;23120;52.336;21.182;2023-08-12T10:31:39;0.00;;;0.00;;
17065;SDS011;23120;52.336;21.182;2023-08-12T10:34:17;0.00;;;0.00;;
17065;SDS011;23120;52.336;21.182;2023-08-12T10:36:45;0.00;;;0.00;;
17065;SDS011;23120;52.336;21.182;2023-08-12T10:39:12;0.00;;;0.00;;
17065;SDS011;23120;52.336;21.182;2023-08-12T10:41:43;0.00;;;0.00;;
17065;SDS011;23120;52.336;21.182;2023-08-12T10:44:17;0.00;;;0.00;;
17065;SDS011;23120;52.336;21.182;2023-08-12T10:46:51;0.00;;;0.00;;
17065;SDS011;23120;52.336;21.182;2023-08-12T10:49:19;0.00;;;0.00;;
17065;SDS011;23120;52.336;21.182;2023-08-12T10:51:47;0.00;;;0.00;;
17065;SDS011;23120;52.336;21.182;2023-08-12T10:54:16;0.00;;;0.00;;
17065;SDS011;23120;52.336;21.182;2023-08-12T10:57:05;0.00;;;0.00;;
17065;SDS011;23120;52.336;21.182;2023-08-12T11:02:23;0.00;;;0.00;;
17065;SDS011;23120;52.336;21.182;2023-08-12T11:04:54;0.00;;;0.00;;
17065;SDS011;23120;52.336;21.182;2023-08-12T11:07:27;0.00;;;0.00;;
17065;SDS011;23120;52.336;21.182;2023-08-12T11:09:58;0.00;;;0.00;;
17065;SDS011;23120;52.336;21.182;2023-08-12T11:12:30;0.00;;;0.00;;
17065;SDS011;23120;52.336;21.182;2023-08-12T11:15:00;0.00;;;0.00;;
17065;SDS011;23120;52.336;21.182;2023-08-12T11:17:30;0.00;;;0.00;;
17065;SDS011;23120;52.336;21.182;2023-08-12T11:19:59;0.00;;;0.00;;
17065;SDS011;23120;52.336;21.182;2023-08-12T11:22:29;0.00;;;0.00;;
17065;SDS011;23120;52.336;21.182;2023-08-12T11:24:57;0.00;;;0.00;;
17065;SDS011;23120;52.336;21.182;2023-08-12T11:27:24;0.00;;;0.00;;
17065;SDS011;23120;52.336;21.182;2023-08-12T11:29:50;0.00;;;0.00;;
17065;SDS011;23120;52.336;21.182;2023-08-12T11:32:17;0.00;;;0.00;;
17065;SDS011;23120;52.336;21.182;2023-08-12T11:34:46;0.00;;;0.00;;
17065;SDS011;23120;52.336;21.182;2023-08-12T11:37:13;0.00;;;0.00;;
17065;SDS011;23120;52.336;21.182;2023-08-12T11:39:41;0.00;;;0.00;;
17065;SDS011;23120;52.336;21.182;2023-08-12T11:42:08;0.00;;;0.00;;
17065;SDS011;23120;52.336;21.182;2023-08-12T11:44:35;0.00;;;0.00;;
17065;SDS011;23120;52.336;21.182;2023-08-12T11:47:02;0.00;;;0.00;;
17065;SDS011;23120;52.336;21.182;2023-08-12T11:49:29;0.00;;;0.00;;
17065;SDS011;23120;52.336;21.182;2023-08-12T11:51:57;0.00;;;0.00;;
17065;SDS011;23120;52.336;21.182;2023-08-12T11:54:24;0.00;;;0.00;;
17065;SDS011;23120;52.336;21.182;2023-08-12T11:56:51;0.00;;;0.00;;
17065;SDS011;23120;52.336;21.182;2023-08-12T11:59:19;0.00;;;0.00;;
17065;SDS011;23120;52.336;21.182;2023-08-12T12:01:48;0.00;;;0.00;;
17065;SDS011;23120;52.336;21.182;2023-08-12T12:04:15;0.00;;;0.00;;
17065;SDS011;23120;52.336;21.182;2023-08-12T12:06:44;0.00;;;0.00;;
17065;SDS011;23120;52.336;21.182;2023-08-12T12:09:15;0.00;;;0.00;;
17065;SDS011;23120;52.336;21.182;2023-08-12T12:11:45;0.00;;;0.00;;
17065;SDS011;23120;52.336;21.182;2023-08-12T12:14:12;0.00;;;0.00;;
17065;SDS011;23120;52.336;21.182;2023-08-12T12:16:39;0.00;;;0.00;;
17065;SDS011;23120;52.336;21.182;2023-08-12T12:19:12;0.00;;;0.00;;
17065;SDS011;23120;52.336;21.182;2023-08-12T12:21:41;0.00;;;0.00;;
17065;SDS011;23120;52.336;21.182;2023-08-12T12:24:10;0.00;;;0.00;;
17065;SDS011;23120;52.336;21.182;2023-08-12T12:26:38;0.00;;;0.00;;
17065;SDS011;23120;52.336;21.182;2023-08-12T12:29:06;0.00;;;0.00;;
17065;SDS011;23120;52.336;21.182;2023-08-12T12:31:36;0.00;;;0.00;;
17065;SDS011;23120;52.336;21.182;2023-08-12T12:34:04;0.00;;;0.00;;
17065;SDS011;23120;52.336;21.182;2023-08-12T12:36:31;0.00;;;0.00;;
17065;SDS011;23120;52.336;21.182;2023-08-12T12:38:58;0.00;;;0.00;;
17065;SDS011;23120;52.336;21.182;2023-08-12T12:41:25;0.00;;;0.00;;
17065;SDS011;23120;52.336;21.182;2023-08-12T12:43:53;0.00;;;0.00;;
17065;SDS011;23120;52.336;21.182;2023-08-12T12:46:20;0.00;;;0.00;;
17065;SDS011;23120;52.336;21.182;2023-08-12T12:48:47;0.00;;;0.00;;
17065;SDS011;23120;52.336;21.182;2023-08-12T12:51:14;0.00;;;0.00;;
17065;SDS011;23120;52.336;21.182;2023-08-12T12:53:41;0.00;;;0.00;;
17065;SDS011;23120;52.336;21.182;2023-08-12T12:56:08;0.00;;;0.00;;
17065;SDS011;23120;52.336;21.182;2023-08-12T12:58:35;0.00;;;0.00;;
17065;SDS011;23120;52.336;21.182;2023-08-12T13:01:04;0.00;;;0.00;;
17065;SDS011;23120;52.336;21.182;2023-08-12T13:03:32;0.00;;;0.00;;
17065;SDS011;23120;52.336;21.182;2023-08-12T13:05:59;0.00;;;0.00;;
17065;SDS011;23120;52.336;21.182;2023-08-12T13:08:28;0.00;;;0.00;;
17065;SDS011;23120;52.336;21.182;2023-08-12T13:10:55;0.00;;;0.00;;
17065;SDS011;23120;52.336;21.182;2023-08-12T13:13:21;0.00;;;0.00;;
17065;SDS011;23120;52.336;21.182;2023-08-12T13:15:48;0.00;;;0.00;;
17065;SDS011;23120;52.336;21.182;2023-08-12T13:18:16;0.00;;;0.00;;
17065;SDS011;23120;52.336;21.182;2023-08-12T13:20:44;0.00;;;0.00;;
17065;SDS011;23120;52.336;21.182;2023-08-12T13:23:10;0.00;;;0.00;;
17065;SDS011;23120;52.336;21.182;2023-08-12T13:25:40;0.00;;;0.00;;
17065;SDS011;23120;52.336;21.182;2023-08-12T13:28:07;0.00;;;0.00;;
17065;SDS011;23120;52.336;21.182;2023-08-12T13:30:34;0.00;;;0.00;;
17065;SDS011;23120;52.336;21.182;2023-08-12T13:33:01;0.00;;;0.00;;
17065;SDS011;23120;52.336;21.182;2023-08-12T13:35:30;0.00;;;0.00;;
17065;SDS011;23120;52.336;21.182;2023-08-12T13:37:57;0.00;;;0.00;;
17065;SDS011;23120;52.336;21.182;2023-08-12T13:40:23;0.00;;;0.00;;
17065;SDS011;23120;52.336;21.182;2023-08-12T13:42:50;0.00;;;0.00;;
17065;SDS011;23120;52.336;21.182;2023-08-12T13:45:17;0.00;;;0.00;;
17065;SDS011;23120;52.336;21.182;2023-08-12T13:47:44;0.00;;;0.00;;
17065;SDS011;23120;52.336;21.182;2023-08-12T13:50:11;0.00;;;0.00;;
17065;SDS011;23120;52.336;21.182;2023-08-12T13:52:39;0.00;;;0.00;;
17065;SDS011;23120;52.336;21.182;2023-08-12T13:55:06;0.00;;;0.00;;
17065;SDS011;23120;52.336;21.182;2023-08-12T13:57:34;0.00;;;0.00;;
17065;SDS011;23120;52.336;21.182;2023-08-12T14:00:01;0.00;;;0.00;;
17065;SDS011;23120;52.336;21.182;2023-08-12T14:02:37;0.00;;;0.00;;
17065;SDS011;23120;52.336;21.182;2023-08-12T14:05:04;0.00;;;0.00;;
17065;SDS011;23120;52.336;21.182;2023-08-12T14:07:32;0.00;;;0.00;;
17065;SDS011;23120;52.336;21.182;2023-08-12T14:10:00;0.00;;;0.00;;
17065;SDS011;23120;52.336;21.182;2023-08-12T14:12:27;0.00;;;0.00;;
17065;SDS011;23120;52.336;21.182;2023-08-12T14:14:54;0.00;;;0.00;;
17065;SDS011;23120;52.336;21.182;2023-08-12T14:17:20;0.00;;;0.00;;
17065;SDS011;23120;52.336;21.182;2023-08-12T14:19:49;0.00;;;0.00;;
17065;SDS011;23120;52.336;21.182;2023-08-12T14:22:16;0.00;;;0.00;;
17065;SDS011;23120;52.336;21.182;2023-08-12T14:24:43;0.00;;;0.00;;
17065;SDS011;23120;52.336;21.182;2023-08-12T14:27:12;0.00;;;0.00;;
17065;SDS011;23120;52.336;21.182;2023-08-12T14:29:38;0.00;;;0.00;;
17065;SDS011;23120;52.336;21.182;2023-08-12T14:32:05;0.00;;;0.00;;
17065;SDS011;23120;52.336;21.182;2023-08-12T14:34:32;0.00;;;0.00;;
17065;SDS011;23120;52.336;21.182;2023-08-12T14:36:59;0.00;;;0.00;;
17065;SDS011;23120;52.336;21.182;2023-08-12T14:39:26;0.00;;;0.00;;
17065;SDS011;23120;52.336;21.182;2023-08-12T14:41:53;0.00;;;0.00;;
17065;SDS011;23120;52.336;21.182;2023-08-12T14:44:21;0.00;;;0.00;;
17065;SDS011;23120;52.336;21.182;2023-08-12T14:46:48;0.00;;;0.00;;
17065;SDS011;23120;52.336;21.182;2023-08-12T14:49:15;0.00;;;0.00;;
17065;SDS011;23120;52.336;21.182;2023-08-12T14:51:41;0.00;;;0.00;;